createdAt,value
2018-09-01T00:00:09.607Z,15.89
2018-09-01T00:02:38.444Z,15.81
2018-09-01T00:05:07.170Z,15.77
2018-09-01T00:07:35.837Z,15.77
2018-09-01T00:10:04.530Z,15.72
2018-09-01T00:12:33.430Z,15.72
2018-09-01T00:15:02.150Z,15.74
2018-09-01T00:17:31.912Z,15.76
2018-09-01T00:20:03.620Z,15.80
2018-09-01T00:22:32.328Z,15.73
2018-09-01T00:25:01.239Z,15.73
2018-09-01T00:27:30.174Z,15.70
2018-09-01T00:29:58.941Z,15.72
2018-09-01T00:32:27.770Z,15.77
2018-09-01T00:34:56.452Z,15.81
2018-09-01T00:37:30.396Z,15.80
2018-09-01T00:39:59.132Z,15.83
2018-09-01T00:42:27.834Z,15.79
2018-09-01T00:44:56.514Z,15.81
2018-09-01T00:47:25.342Z,15.85
2018-09-01T00:49:54.113Z,15.82
2018-09-01T00:52:23.183Z,15.85
2018-09-01T00:54:51.829Z,15.84
2018-09-01T00:57:20.464Z,15.82
2018-09-01T00:59:49.345Z,15.85
2018-09-01T01:02:17.995Z,15.82
2018-09-01T01:04:47.190Z,15.89
2018-09-01T01:07:16.134Z,15.88
2018-09-01T01:09:45.594Z,15.76
2018-09-01T01:12:14.725Z,15.71
2018-09-01T01:14:43.421Z,15.76
2018-09-01T01:17:12.171Z,15.76
2018-09-01T01:19:41.600Z,15.76
2018-09-01T01:22:10.353Z,15.73
2018-09-01T01:24:39.283Z,15.74
2018-09-01T01:27:08.049Z,15.76
2018-09-01T01:29:36.722Z,15.84
2018-09-01T01:32:05.750Z,15.85
2018-09-01T01:34:34.393Z,15.79
2018-09-01T01:37:03.121Z,15.87
2018-09-01T01:39:31.801Z,15.75
2018-09-01T01:42:00.481Z,15.74
2018-09-01T01:44:29.278Z,15.76
2018-09-01T01:46:57.937Z,15.78
2018-09-01T01:49:26.772Z,15.73
2018-09-01T01:51:55.832Z,15.68
2018-09-01T01:54:24.475Z,15.72
2018-09-01T01:56:54.185Z,15.82
2018-09-01T01:59:22.927Z,15.87
2018-09-01T02:01:51.766Z,15.72
2018-09-01T02:04:20.506Z,15.76
2018-09-01T02:06:49.264Z,15.73
2018-09-01T02:09:17.984Z,15.78
2018-09-01T02:11:46.857Z,15.72
2018-09-01T02:14:15.567Z,15.75
2018-09-01T02:16:44.233Z,15.68
2018-09-01T02:19:12.951Z,15.80
2018-09-01T02:21:41.719Z,15.78
2018-09-01T02:24:10.362Z,15.69
2018-09-01T02:26:39.323Z,15.73
2018-09-01T02:29:08.278Z,15.69
2018-09-01T02:31:37.386Z,15.65
2018-09-01T02:34:06.111Z,15.70
2018-09-01T02:36:34.837Z,15.72
2018-09-01T02:39:04.598Z,15.71
2018-09-01T02:41:33.360Z,15.72
2018-09-01T02:44:02.276Z,15.73
2018-09-01T02:46:30.964Z,15.78
2018-09-01T02:48:59.763Z,15.81
2018-09-01T02:51:28.513Z,15.82
2018-09-01T02:53:57.203Z,15.84
2018-09-01T02:56:26.042Z,16.07
2018-09-01T02:58:54.841Z,15.95
2018-09-01T03:01:28.914Z,15.91
2018-09-01T03:03:57.640Z,15.93
2018-09-01T03:06:26.410Z,15.79
2018-09-01T03:08:55.170Z,15.73
2018-09-01T03:11:23.909Z,15.68
2018-09-01T03:13:52.956Z,15.70
2018-09-01T03:16:21.878Z,15.74
2018-09-01T03:18:50.534Z,15.71
2018-09-01T03:21:19.361Z,15.88
2018-09-01T03:23:48.009Z,15.83
2018-09-01T03:26:16.803Z,15.77
2018-09-01T03:28:45.667Z,15.68
2018-09-01T03:31:14.315Z,15.73
2018-09-01T03:33:43.051Z,15.65
2018-09-01T03:36:11.697Z,15.57
2018-09-01T03:38:40.560Z,15.60
2018-09-01T03:41:09.309Z,15.73
2018-09-01T03:43:37.950Z,15.61
2018-09-01T03:46:07.050Z,15.70
2018-09-01T03:48:35.784Z,15.58
2018-09-01T03:51:04.742Z,15.55
2018-09-01T03:53:33.567Z,15.61
2018-09-01T03:56:02.254Z,15.68
2018-09-01T03:58:30.974Z,15.56
2018-09-01T04:00:59.618Z,15.45
2018-09-01T04:03:28.643Z,15.39
2018-09-01T04:05:57.615Z,15.37
2018-09-01T04:08:26.281Z,15.41
2018-09-01T04:10:55.074Z,15.48
2018-09-01T04:13:23.703Z,15.26
2018-09-01T04:15:52.492Z,15.33
2018-09-01T04:18:21.333Z,15.30
2018-09-01T04:20:49.982Z,15.39
2018-09-01T04:23:18.753Z,15.34
2018-09-01T04:25:47.389Z,15.43
2018-09-01T04:28:16.322Z,15.54
2018-09-01T04:30:45.019Z,15.37
2018-09-01T04:33:13.877Z,15.48
2018-09-01T04:35:42.523Z,15.42
2018-09-01T04:38:11.247Z,15.40
2018-09-01T04:40:40.373Z,15.34
2018-09-01T04:43:09.822Z,15.43
2018-09-01T04:45:38.546Z,15.35
2018-09-01T04:48:07.326Z,15.45
2018-09-01T04:50:35.981Z,15.45
2018-09-01T04:53:04.831Z,15.33
2018-09-01T04:55:33.625Z,15.38
2018-09-01T04:58:02.282Z,15.42
2018-09-01T05:00:30.978Z,15.36
2018-09-01T05:02:59.610Z,15.40
2018-09-01T05:05:28.670Z,15.36
2018-09-01T05:07:57.449Z,15.42
2018-09-01T05:10:26.098Z,15.46
2018-09-01T05:12:54.912Z,15.34
2018-09-01T05:15:23.693Z,15.30
2018-09-01T05:17:52.713Z,15.36
2018-09-01T05:20:21.374Z,15.36
2018-09-01T05:22:50.101Z,15.37
2018-09-01T05:25:18.927Z,15.34
2018-09-01T05:27:47.622Z,15.28
2018-09-01T05:30:16.392Z,15.27
2018-09-01T05:32:45.063Z,15.33
2018-09-01T05:35:13.877Z,15.25
2018-09-01T05:37:42.713Z,15.19
2018-09-01T05:40:11.482Z,15.29
2018-09-01T05:42:40.294Z,15.29
2018-09-01T05:45:08.961Z,15.24
2018-09-01T05:47:37.645Z,15.33
2018-09-01T05:50:06.673Z,15.28
2018-09-01T05:52:35.528Z,15.35
2018-09-01T05:55:04.246Z,15.36
2018-09-01T05:57:33.047Z,15.39
2018-09-01T06:00:01.766Z,15.37
2018-09-01T06:02:30.590Z,15.35
2018-09-01T06:04:59.239Z,15.45
2018-09-01T06:07:28.061Z,15.48
2018-09-01T06:09:56.719Z,15.55
2018-09-01T06:12:25.572Z,15.50
2018-09-01T06:14:54.222Z,15.57
2018-09-01T06:17:23.118Z,15.73
2018-09-01T06:19:51.760Z,15.88
2018-09-01T06:22:20.478Z,15.94
2018-09-01T06:24:49.865Z,16.03
2018-09-01T06:27:23.782Z,15.81
2018-09-01T06:29:52.817Z,15.85
2018-09-01T06:32:21.647Z,15.83
2018-09-01T06:34:50.341Z,15.83
2018-09-01T06:37:19.066Z,15.75
2018-09-01T06:39:47.881Z,15.85
2018-09-01T06:42:16.759Z,15.87
2018-09-01T06:44:45.438Z,15.94
2018-09-01T06:47:14.424Z,16.00
2018-09-01T06:49:43.310Z,16.05
2018-09-01T06:52:12.110Z,16.03
2018-09-01T06:54:40.770Z,16.08
2018-09-01T06:57:09.586Z,16.13
2018-09-01T06:59:38.232Z,16.19
2018-09-01T07:02:07.730Z,16.10
2018-09-01T07:04:36.634Z,16.11
2018-09-01T07:07:05.481Z,16.25
2018-09-01T07:09:34.236Z,16.50
2018-09-01T07:12:03.010Z,16.77
2018-09-01T07:14:31.930Z,16.89
2018-09-01T07:17:00.601Z,16.98
2018-09-01T07:19:29.435Z,17.15
2018-09-01T07:21:58.161Z,17.18
2018-09-01T07:24:26.853Z,17.28
2018-09-01T07:26:55.553Z,17.26
2018-09-01T07:29:24.730Z,17.28
2018-09-01T07:31:53.662Z,17.34
2018-09-01T07:34:22.430Z,17.25
2018-09-01T07:36:51.101Z,17.09
2018-09-01T07:39:20.293Z,17.18
2018-09-01T07:41:48.970Z,17.10
2018-09-01T07:44:18.029Z,17.20
2018-09-01T07:46:46.694Z,17.49
2018-09-01T07:49:15.596Z,17.71
2018-09-01T07:51:44.335Z,17.53
2018-09-01T07:54:13.059Z,17.66
2018-09-01T07:56:42.189Z,17.57
2018-09-01T07:59:11.157Z,17.76
2018-09-01T08:01:39.969Z,17.68
2018-09-01T08:04:08.641Z,17.67
2018-09-01T08:06:37.436Z,17.71
2018-09-01T08:09:08.178Z,17.87
2018-09-01T08:11:36.929Z,17.85
2018-09-01T08:14:05.707Z,17.97
2018-09-01T08:16:34.362Z,18.09
2018-09-01T08:19:03.093Z,18.11
2018-09-01T08:21:31.921Z,18.03
2018-09-01T08:24:00.695Z,18.26
2018-09-01T08:26:29.453Z,18.37
2018-09-01T08:28:58.110Z,18.42
2018-09-01T08:31:26.919Z,18.49
2018-09-01T08:33:55.758Z,18.60
2018-09-01T08:36:24.477Z,18.44
2018-09-01T08:38:53.206Z,18.47
2018-09-01T08:41:21.888Z,18.70
2018-09-01T08:43:51.097Z,18.59
2018-09-01T08:46:20.212Z,18.78
2018-09-01T08:48:48.913Z,18.76
2018-09-01T08:51:17.718Z,18.43
2018-09-01T08:53:46.474Z,18.39
2018-09-01T08:56:15.227Z,18.41
2018-09-01T08:58:44.159Z,18.50
2018-09-01T09:01:12.839Z,18.55
2018-09-01T09:03:41.644Z,18.60
2018-09-01T09:06:10.522Z,18.57
2018-09-01T09:08:39.265Z,18.71
2018-09-01T09:11:08.606Z,18.85
2018-09-01T09:13:37.378Z,18.76
2018-09-01T09:16:06.273Z,18.96
2018-09-01T09:18:35.084Z,18.85
2018-09-01T09:21:03.849Z,19.04
2018-09-01T09:23:32.561Z,19.02
2018-09-01T09:26:01.290Z,19.18
2018-09-01T09:28:29.963Z,19.10
2018-09-01T09:30:59.119Z,19.21
2018-09-01T09:33:27.870Z,19.33
2018-09-01T09:35:56.671Z,19.63
2018-09-01T09:38:25.464Z,19.51
2018-09-01T09:40:55.377Z,19.54
2018-09-01T09:43:24.084Z,19.57
2018-09-01T09:45:52.850Z,19.27
2018-09-01T09:48:21.666Z,19.51
2018-09-01T09:50:50.531Z,19.44
2018-09-01T09:53:19.201Z,19.41
2018-09-01T09:55:47.903Z,19.49
2018-09-01T09:58:16.668Z,19.54
2018-09-01T10:00:51.336Z,19.53
2018-09-01T10:03:19.960Z,19.66
2018-09-01T10:05:48.738Z,19.43
2018-09-01T10:08:17.445Z,19.29
2018-09-01T10:10:46.082Z,19.31
2018-09-01T10:13:14.762Z,19.64
2018-09-01T10:15:43.473Z,19.41
2018-09-01T10:18:12.306Z,19.62
2018-09-01T10:20:41.221Z,19.74
2018-09-01T10:23:09.797Z,19.59
2018-09-01T10:25:38.600Z,19.61
2018-09-01T10:28:07.608Z,19.63
2018-09-01T10:30:36.382Z,19.87
2018-09-01T10:33:05.325Z,19.71
2018-09-01T10:35:34.042Z,19.78
2018-09-01T10:38:02.755Z,19.84
2018-09-01T10:40:31.529Z,20.04
2018-09-01T10:43:00.443Z,20.43
2018-09-01T10:45:29.190Z,20.35
2018-09-01T10:47:58.154Z,20.39
2018-09-01T10:50:27.136Z,20.78
2018-09-01T10:52:56.038Z,20.48
2018-09-01T10:55:24.785Z,20.77
2018-09-01T10:57:53.465Z,21.02
2018-09-01T11:00:22.131Z,21.21
2018-09-01T11:02:52.345Z,21.10
2018-09-01T11:05:21.803Z,20.87
2018-09-01T11:07:50.579Z,21.07
2018-09-01T11:10:19.511Z,21.20
2018-09-01T11:12:48.162Z,20.95
2018-09-01T11:15:17.067Z,20.83
2018-09-01T11:17:45.826Z,20.75
2018-09-01T11:20:15.066Z,21.04
2018-09-01T11:22:44.101Z,20.95
2018-09-01T11:25:12.762Z,20.69
2018-09-01T11:27:41.519Z,20.92
2018-09-01T11:30:11.512Z,20.87
2018-09-01T11:32:41.051Z,21.07
2018-09-01T11:35:10.342Z,20.78
2018-09-01T11:37:39.139Z,20.96
2018-09-01T11:40:08.179Z,21.05
2018-09-01T11:42:36.953Z,21.04
2018-09-01T11:45:05.645Z,21.04
2018-09-01T11:47:34.428Z,20.88
2018-09-01T11:50:03.184Z,20.76
2018-09-01T11:52:31.937Z,20.79
2018-09-01T11:55:00.596Z,20.90
2018-09-01T11:57:29.502Z,20.39
2018-09-01T12:02:41.883Z,20.61
2018-09-01T12:05:10.617Z,20.40
2018-09-01T12:07:39.249Z,20.33
2018-09-01T12:10:08.646Z,20.37
2018-09-01T12:12:37.935Z,20.48
2018-09-01T12:15:07.450Z,20.72
2018-09-01T12:17:36.198Z,20.54
2018-09-01T12:20:05.033Z,20.64
2018-09-01T12:22:33.896Z,20.40
2018-09-01T12:25:02.591Z,20.54
2018-09-01T12:27:31.603Z,20.60
2018-09-01T12:30:00.370Z,20.58
2018-09-01T12:32:29.142Z,20.70
2018-09-01T12:34:58.045Z,20.52
2018-09-01T12:37:26.945Z,20.66
2018-09-01T12:39:55.745Z,20.71
2018-09-01T12:42:24.408Z,20.40
2018-09-01T12:44:53.129Z,20.25
2018-09-01T12:47:21.869Z,20.22
2018-09-01T12:49:50.537Z,20.07
2018-09-01T12:52:19.398Z,19.98
2018-09-01T12:54:48.129Z,20.02
2018-09-01T12:57:16.926Z,20.06
2018-09-01T12:59:45.663Z,19.87
2018-09-01T13:02:19.717Z,19.90
2018-09-01T13:04:49.519Z,20.01
2018-09-01T13:07:18.372Z,20.13
2018-09-01T13:09:47.217Z,20.08
2018-09-01T13:12:16.155Z,19.87
2018-09-01T13:14:44.915Z,19.98
2018-09-01T13:17:14.532Z,20.12
2018-09-01T13:19:43.964Z,20.16
2018-09-01T13:22:12.611Z,20.11
2018-09-01T13:24:41.526Z,20.22
2018-09-01T13:27:10.295Z,20.27
2018-09-01T13:29:39.008Z,20.47
2018-09-01T13:32:07.856Z,20.49
2018-09-01T13:34:36.601Z,20.44
2018-09-01T13:37:05.391Z,20.44
2018-09-01T13:39:34.430Z,20.47
2018-09-01T13:42:03.240Z,20.38
2018-09-01T13:44:32.371Z,20.45
2018-09-01T13:47:01.124Z,20.47
2018-09-01T13:49:29.871Z,20.39
2018-09-01T13:51:58.567Z,20.24
2018-09-01T13:54:27.311Z,19.96
2018-09-01T13:56:56.099Z,20.28
2018-09-01T13:59:24.738Z,20.43
2018-09-01T14:01:53.540Z,20.48
2018-09-01T14:04:22.294Z,20.49
2018-09-01T14:06:51.346Z,20.53
2018-09-01T14:09:20.029Z,20.52
2018-09-01T14:11:48.902Z,20.25
2018-09-01T14:14:17.924Z,20.23
2018-09-01T14:16:46.710Z,20.15
2018-09-01T14:19:15.410Z,20.16
2018-09-01T14:21:44.120Z,19.99
2018-09-01T14:24:12.822Z,19.84
2018-09-01T14:26:41.613Z,19.70
2018-09-01T14:29:10.452Z,19.78
2018-09-01T14:31:39.449Z,19.77
2018-09-01T14:34:08.384Z,19.68
2018-09-01T14:36:37.394Z,19.79
2018-09-01T14:39:09.322Z,19.74
2018-09-01T14:41:38.056Z,19.71
2018-09-01T14:44:06.858Z,19.66
2018-09-01T14:46:36.616Z,19.77
2018-09-01T14:49:05.478Z,19.59
2018-09-01T14:51:34.482Z,19.69
2018-09-01T14:54:03.238Z,19.51
2018-09-01T14:56:32.017Z,19.45
2018-09-01T14:59:00.886Z,19.31
2018-09-01T15:01:29.593Z,19.33
2018-09-01T15:03:58.408Z,19.39
2018-09-01T15:06:27.073Z,19.29
2018-09-01T15:08:55.954Z,19.29
2018-09-01T15:11:24.655Z,19.20
2018-09-01T15:13:53.545Z,19.15
2018-09-01T15:16:22.873Z,19.15
2018-09-01T15:18:51.623Z,19.15
2018-09-01T15:21:20.442Z,19.03
2018-09-01T15:23:49.193Z,18.95
2018-09-01T15:26:17.890Z,19.02
2018-09-01T15:28:46.550Z,19.06
2018-09-01T15:31:15.229Z,19.06
2018-09-01T15:33:43.949Z,19.04
2018-09-01T15:36:12.702Z,19.02
2018-09-01T15:38:41.425Z,18.91
2018-09-01T15:41:10.729Z,18.78
2018-09-01T15:43:39.481Z,18.93
2018-09-01T15:46:08.521Z,18.69
2018-09-01T15:48:37.232Z,18.73
2018-09-01T15:51:05.989Z,18.77
2018-09-01T15:53:34.737Z,18.80
2018-09-01T15:56:03.502Z,18.78
2018-09-01T15:58:32.184Z,18.58
2018-09-01T16:01:01.169Z,18.65
2018-09-01T16:03:30.113Z,18.72
2018-09-01T16:05:58.818Z,18.72
2018-09-01T16:08:27.518Z,18.72
2018-09-01T16:10:56.369Z,18.68
2018-09-01T16:13:25.150Z,18.59
2018-09-01T16:15:53.797Z,18.49
2018-09-01T16:18:22.678Z,18.46
2018-09-01T16:20:51.353Z,18.36
2018-09-01T16:23:20.034Z,18.28
2018-09-01T16:25:48.901Z,18.44
2018-09-01T16:28:17.634Z,18.40
2018-09-01T16:30:46.293Z,18.34
2018-09-01T16:33:15.098Z,18.35
2018-09-01T16:35:43.795Z,18.29
2018-09-01T16:38:12.518Z,18.31
2018-09-01T16:40:41.239Z,18.23
2018-09-01T16:43:10.966Z,18.20
2018-09-01T16:45:39.833Z,18.19
2018-09-01T16:48:08.693Z,18.25
2018-09-01T16:50:37.635Z,18.18
2018-09-01T16:53:06.637Z,18.23
2018-09-01T16:55:35.312Z,18.13
2018-09-01T16:58:04.464Z,18.10
2018-09-01T17:00:33.149Z,18.05
2018-09-01T17:03:02.232Z,18.00
2018-09-01T17:05:30.982Z,18.05
2018-09-01T17:07:59.774Z,18.00
2018-09-01T17:10:28.478Z,17.97
2018-09-01T17:12:57.162Z,17.96
2018-09-01T17:15:25.866Z,17.94
2018-09-01T17:17:54.668Z,18.10
2018-09-01T17:20:23.389Z,18.07
2018-09-01T17:22:52.246Z,17.99
2018-09-01T17:25:20.981Z,17.95
2018-09-01T17:27:49.630Z,17.97
2018-09-01T17:30:18.384Z,17.86
2018-09-01T17:32:47.264Z,17.77
2018-09-01T17:35:16.086Z,17.70
2018-09-01T17:37:44.841Z,17.65
2018-09-01T17:40:13.685Z,17.65
2018-09-01T17:42:42.492Z,17.60
2018-09-01T17:45:11.287Z,17.54
2018-09-01T17:47:40.424Z,17.58
2018-09-01T17:50:09.206Z,17.56
2018-09-01T17:52:37.900Z,17.63
2018-09-01T17:55:07.006Z,17.54
2018-09-01T17:57:35.823Z,17.50
2018-09-01T18:00:05.768Z,17.51
2018-09-01T18:02:35.234Z,17.58
2018-09-01T18:05:04.110Z,17.57
2018-09-01T18:07:32.895Z,17.58
2018-09-01T18:10:01.750Z,17.57
2018-09-01T18:12:30.562Z,17.61
2018-09-01T18:14:59.356Z,17.63
2018-09-01T18:17:28.488Z,17.68
2018-09-01T18:19:57.223Z,17.63
2018-09-01T18:22:25.963Z,17.60
2018-09-01T18:24:54.723Z,17.76
2018-09-01T18:27:23.400Z,17.72
2018-09-01T18:29:52.115Z,17.62
2018-09-01T18:32:20.969Z,17.59
2018-09-01T18:34:49.779Z,17.50
2018-09-01T18:37:19.039Z,17.43
2018-09-01T18:39:48.071Z,17.48
2018-09-01T18:42:16.879Z,17.44
2018-09-01T18:44:45.607Z,17.44
2018-09-01T18:47:14.567Z,17.40
2018-09-01T18:49:44.089Z,17.37
2018-09-01T18:52:13.003Z,17.51
2018-09-01T18:54:41.729Z,17.55
2018-09-01T18:57:10.587Z,17.56
2018-09-01T18:59:39.309Z,17.42
2018-09-01T19:02:08.189Z,17.29
2018-09-01T19:04:36.960Z,17.34
2018-09-01T19:07:05.732Z,17.38
2018-09-01T19:09:34.753Z,17.27
2018-09-01T19:12:03.622Z,17.21
2018-09-01T19:14:32.714Z,17.19
2018-09-01T19:17:07.718Z,17.22
2018-09-01T19:19:36.495Z,17.11
2018-09-01T19:22:05.265Z,17.07
2018-09-01T19:24:34.122Z,17.01
2018-09-01T19:27:03.202Z,17.03
2018-09-01T19:29:31.880Z,16.98
2018-09-01T19:32:00.734Z,16.91
2018-09-01T19:34:29.618Z,16.89
2018-09-01T19:36:58.279Z,16.86
2018-09-01T19:39:27.310Z,16.91
2018-09-01T19:41:56.105Z,16.95
2018-09-01T19:44:24.950Z,16.98
2018-09-01T19:46:53.761Z,16.93
2018-09-01T19:49:22.401Z,16.82
2018-09-01T19:51:51.371Z,16.77
2018-09-01T19:54:20.238Z,16.84
2018-09-01T19:56:49.104Z,16.65
2018-09-01T19:59:17.769Z,16.70
2018-09-01T20:01:46.703Z,16.72
2018-09-01T20:04:15.600Z,16.76
2018-09-01T20:06:44.302Z,16.81
2018-09-01T20:09:13.172Z,16.77
2018-09-01T20:11:42.078Z,16.83
2018-09-01T20:14:10.959Z,16.90
2018-09-01T20:16:39.747Z,16.93
2018-09-01T20:19:08.442Z,16.89
2018-09-01T20:21:37.220Z,16.91
2018-09-01T20:24:06.286Z,16.98
2018-09-01T20:26:35.443Z,17.01
2018-09-01T20:29:04.224Z,17.00
2018-09-01T20:31:33.094Z,17.10
2018-09-01T20:34:01.967Z,17.14
2018-09-01T20:36:30.728Z,17.13
2018-09-01T20:38:59.618Z,17.09
2018-09-01T20:41:28.301Z,17.12
2018-09-01T20:43:57.111Z,17.08
2018-09-01T20:46:26.032Z,17.17
2018-09-01T20:48:54.803Z,17.09
2018-09-01T20:51:23.809Z,17.13
2018-09-01T20:53:52.889Z,17.31
2018-09-01T20:56:21.610Z,17.19
2018-09-01T20:58:50.382Z,17.19
2018-09-01T21:01:19.374Z,17.16
2018-09-01T21:03:48.117Z,17.17
2018-09-01T21:06:16.966Z,17.09
2018-09-01T21:08:45.861Z,17.10
2018-09-01T21:11:14.509Z,17.15
2018-09-01T21:13:43.441Z,17.12
2018-09-01T21:16:13.112Z,17.03
2018-09-01T21:18:41.902Z,17.02
2018-09-01T21:21:10.585Z,17.06
2018-09-01T21:23:39.717Z,17.09
2018-09-01T21:26:08.574Z,17.12
2018-09-01T21:28:37.245Z,17.05
2018-09-01T21:31:06.170Z,17.10
2018-09-01T21:33:35.053Z,17.16
2018-09-01T21:36:03.877Z,17.14
2018-09-01T21:38:33.217Z,17.16
2018-09-01T21:41:01.909Z,17.17
2018-09-01T21:43:30.690Z,17.16
2018-09-01T21:45:59.626Z,17.20
2018-09-01T21:48:28.599Z,17.14
2018-09-01T21:50:57.850Z,17.21
2018-09-01T21:53:26.845Z,17.14
2018-09-01T21:55:55.824Z,17.20
2018-09-01T21:58:24.682Z,17.22
2018-09-01T22:00:53.557Z,17.18
2018-09-01T22:03:22.749Z,17.19
2018-09-01T22:05:52.003Z,17.22
2018-09-01T22:08:20.778Z,17.19
2018-09-01T22:10:49.621Z,17.20
2018-09-01T22:13:18.339Z,17.11
2018-09-01T22:15:47.544Z,17.13
2018-09-01T22:18:16.362Z,17.11
2018-09-01T22:20:45.342Z,17.14
2018-09-01T22:23:14.075Z,17.13
2018-09-01T22:25:42.787Z,17.15
2018-09-01T22:28:11.469Z,17.18
2018-09-01T22:30:40.286Z,17.19
2018-09-01T22:33:09.090Z,17.26
2018-09-01T22:35:37.745Z,17.23
2018-09-01T22:38:06.545Z,17.24
2018-09-01T22:40:35.309Z,17.23
2018-09-01T22:43:04.096Z,17.20
2018-09-01T22:45:33.012Z,17.14
2018-09-01T22:48:01.678Z,17.20
2018-09-01T22:50:30.700Z,17.18
2018-09-01T22:52:59.489Z,17.16
2018-09-01T22:55:28.182Z,17.09
2018-09-01T22:57:56.931Z,17.07
2018-09-01T23:00:25.785Z,17.05
2018-09-01T23:02:54.522Z,17.20
2018-09-01T23:05:23.194Z,17.18
2018-09-01T23:07:52.014Z,17.22
2018-09-01T23:10:21.189Z,17.23
2018-09-01T23:12:49.806Z,17.19
2018-09-01T23:15:18.648Z,17.20
2018-09-01T23:17:47.653Z,17.23
2018-09-01T23:20:16.448Z,17.23
2018-09-01T23:22:45.362Z,17.13
2018-09-01T23:25:17.788Z,17.17
2018-09-01T23:27:46.725Z,17.18
2018-09-01T23:30:15.437Z,17.17
2018-09-01T23:32:44.090Z,17.28
2018-09-01T23:35:13.095Z,17.22
2018-09-01T23:37:41.865Z,17.13
2018-09-01T23:40:10.664Z,17.16
2018-09-01T23:42:39.401Z,17.00
2018-09-01T23:45:08.092Z,17.07
2018-09-01T23:47:36.910Z,17.03
2018-09-01T23:50:06.417Z,17.02
2018-09-01T23:52:35.093Z,16.87
2018-09-01T23:55:04.219Z,16.92
2018-09-01T23:57:33.171Z,16.96
